createdAt,value
2022-12-12T00:01:40.569Z,18.80
2022-12-12T00:04:07.242Z,19.25
2022-12-12T00:06:33.853Z,20.00
2022-12-12T00:09:00.528Z,20.55
2022-12-12T00:11:28.229Z,20.88
2022-12-12T00:13:55.127Z,20.38
2022-12-12T00:16:22.598Z,21.30
2022-12-12T00:18:49.346Z,21.05
2022-12-12T00:21:22.258Z,21.52
2022-12-12T00:23:49.136Z,23.00
2022-12-12T00:26:27.913Z,23.38
2022-12-12T00:28:55.477Z,55.65
2022-12-12T00:31:22.172Z,22.90
2022-12-12T00:33:50.373Z,22.88
2022-12-12T00:36:22.893Z,21.23
2022-12-12T00:38:50.504Z,21.70
2022-12-12T00:41:17.332Z,19.33
2022-12-12T00:43:43.921Z,20.52
2022-12-12T00:46:14.892Z,20.95
2022-12-12T00:48:41.605Z,20.13
2022-12-12T00:51:10.262Z,19.90
2022-12-12T00:53:38.354Z,20.73
2022-12-12T00:56:05.882Z,20.00
2022-12-12T00:58:32.783Z,20.00
2022-12-12T01:01:06.485Z,19.60
2022-12-12T01:03:34.686Z,20.48
2022-12-12T01:06:01.238Z,20.10
2022-12-12T01:08:28.855Z,19.02
2022-12-12T01:10:56.156Z,19.45
2022-12-12T01:13:23.198Z,18.58
2022-12-12T01:15:50.369Z,19.42
2022-12-12T01:18:17.563Z,18.73
2022-12-12T01:20:44.548Z,18.08
2022-12-12T01:23:11.568Z,17.73
2022-12-12T01:25:38.329Z,17.92
2022-12-12T01:28:05.375Z,18.85
2022-12-12T01:30:32.475Z,16.70
2022-12-12T01:32:59.195Z,17.80
2022-12-12T01:35:26.328Z,17.40
2022-12-12T01:37:54.232Z,18.08
2022-12-12T01:40:24.903Z,17.42
2022-12-12T01:42:51.866Z,17.70
2022-12-12T01:45:55.732Z,17.10
2022-12-12T01:48:25.823Z,16.25
2022-12-12T01:50:53.173Z,17.02
2022-12-12T01:53:20.594Z,16.08
2022-12-12T01:55:49.477Z,16.58
2022-12-12T01:58:17.078Z,16.45
2022-12-12T02:00:44.207Z,16.17
2022-12-12T02:03:11.007Z,16.20
2022-12-12T02:05:43.419Z,16.85
2022-12-12T02:08:12.965Z,16.25
2022-12-12T02:10:39.884Z,16.42
2022-12-12T02:13:11.652Z,16.52
2022-12-12T02:15:44.620Z,15.57
2022-12-12T02:18:24.486Z,15.95
2022-12-12T02:21:05.137Z,16.70
2022-12-12T02:23:34.547Z,16.20
2022-12-12T02:26:35.172Z,17.40
2022-12-12T02:29:20.630Z,16.67
2022-12-12T02:31:55.295Z,20.90
2022-12-12T02:34:58.877Z,19.20
2022-12-12T02:37:25.403Z,20.10
2022-12-12T02:39:51.873Z,19.50
2022-12-12T02:42:27.060Z,19.15
2022-12-12T02:45:32.484Z,18.45
2022-12-12T02:48:06.044Z,18.08
2022-12-12T02:50:34.152Z,16.98
2022-12-12T02:53:00.921Z,17.30
2022-12-12T02:55:27.588Z,16.90
2022-12-12T02:57:55.379Z,17.27
2022-12-12T03:00:22.216Z,16.90
2022-12-12T03:03:16.113Z,17.17
2022-12-12T03:06:11.387Z,20.00
2022-12-12T03:08:56.429Z,16.55
2022-12-12T03:11:25.961Z,18.58
2022-12-12T03:13:52.445Z,18.77
2022-12-12T03:16:30.224Z,18.13
2022-12-12T03:19:02.794Z,17.60
2022-12-12T03:21:35.572Z,15.60
2022-12-12T03:24:22.700Z,16.85
2022-12-12T03:27:01.196Z,18.02
2022-12-12T03:29:36.162Z,16.77
2022-12-12T03:32:14.456Z,16.55
2022-12-12T03:34:49.790Z,16.17
2022-12-12T03:37:47.132Z,17.13
2022-12-12T03:40:19.625Z,15.60
2022-12-12T03:42:53.258Z,14.85
2022-12-12T03:45:50.944Z,16.65
2022-12-12T03:48:33.517Z,17.58
2022-12-12T03:51:18.846Z,16.40
2022-12-12T03:53:55.281Z,16.33
2022-12-12T03:56:31.800Z,15.52
2022-12-12T03:59:13.097Z,17.00
2022-12-12T04:02:08.707Z,16.85
2022-12-12T04:04:48.462Z,17.85
2022-12-12T04:07:40.257Z,16.90
2022-12-12T04:10:26.294Z,16.77
2022-12-12T04:13:11.559Z,18.10
2022-12-12T04:15:38.120Z,17.75
2022-12-12T04:18:16.973Z,17.95
2022-12-12T04:21:34.607Z,18.15
2022-12-12T04:24:11.957Z,17.95
2022-12-12T04:26:49.580Z,17.17
2022-12-12T04:29:19.097Z,17.45
2022-12-12T04:32:03.664Z,18.17
2022-12-12T04:34:43.888Z,17.73
2022-12-12T04:37:15.340Z,18.15
2022-12-12T04:39:44.537Z,17.52
2022-12-12T04:42:15.516Z,18.05
2022-12-12T04:44:45.012Z,18.07
2022-12-12T04:47:14.211Z,17.85
2022-12-12T04:49:43.578Z,17.58
2022-12-12T04:52:13.529Z,17.20
2022-12-12T04:54:57.898Z,18.27
2022-12-12T04:57:30.204Z,18.63
2022-12-12T04:59:57.364Z,20.30
2022-12-12T05:02:50.500Z,19.65
2022-12-12T05:05:54.898Z,18.25
2022-12-12T05:08:27.066Z,18.33
2022-12-12T05:11:00.404Z,18.50
2022-12-12T05:13:36.965Z,18.90
2022-12-12T05:16:32.733Z,17.83
2022-12-12T05:19:00.056Z,18.80
2022-12-12T05:21:26.909Z,18.38
2022-12-12T05:23:53.855Z,18.33
2022-12-12T05:26:24.696Z,17.98
2022-12-12T05:28:51.502Z,17.50
2022-12-12T05:31:18.080Z,19.70
2022-12-12T05:33:45.274Z,19.50
2022-12-12T05:36:12.453Z,19.88
2022-12-12T05:38:39.175Z,20.08
2022-12-12T05:41:06.208Z,20.83
2022-12-12T05:43:33.251Z,20.90
2022-12-12T05:46:00.110Z,21.05
2022-12-12T05:48:26.857Z,20.45
2022-12-12T05:50:53.795Z,20.75
2022-12-12T05:53:20.773Z,20.90
2022-12-12T05:55:51.373Z,19.95
2022-12-12T05:58:19.371Z,15.65
2022-12-12T06:00:49.791Z,14.85
2022-12-12T06:03:17.208Z,16.92
2022-12-12T06:05:44.017Z,20.00
2022-12-12T06:08:10.731Z,20.40
2022-12-12T06:10:37.696Z,21.83
2022-12-12T06:13:04.334Z,20.83
2022-12-12T06:15:30.978Z,20.88
2022-12-12T06:17:58.695Z,22.30
2022-12-12T06:20:25.507Z,22.42
2022-12-12T06:22:53.895Z,22.20
2022-12-12T06:25:21.082Z,20.73
2022-12-12T06:27:47.796Z,21.95
2022-12-12T06:30:14.716Z,22.38
2022-12-12T06:32:41.422Z,22.20
2022-12-12T06:35:08.768Z,21.42
2022-12-12T06:37:35.965Z,22.00
2022-12-12T06:40:02.669Z,22.40
2022-12-12T06:42:29.326Z,22.65
2022-12-12T06:44:55.909Z,22.55
2022-12-12T06:47:22.514Z,23.08
2022-12-12T06:49:49.115Z,22.20
2022-12-12T06:52:15.716Z,22.08
2022-12-12T06:54:42.278Z,23.42
2022-12-12T06:57:08.982Z,24.50
2022-12-12T06:59:35.538Z,22.58
2022-12-12T07:02:02.215Z,21.98
2022-12-12T07:04:29.359Z,23.55
2022-12-12T07:06:56.120Z,23.42
2022-12-12T07:09:22.697Z,22.65
2022-12-12T07:11:49.360Z,23.80
2022-12-12T07:14:15.986Z,24.00
2022-12-12T07:16:42.580Z,24.75
2022-12-12T07:19:09.656Z,23.88
2022-12-12T07:21:36.538Z,24.30
2022-12-12T07:24:03.218Z,23.45
2022-12-12T07:26:29.929Z,23.63
2022-12-12T07:28:56.595Z,23.92
2022-12-12T07:31:26.507Z,24.73
2022-12-12T07:33:54.589Z,24.13
2022-12-12T07:36:21.266Z,25.15
2022-12-12T07:38:47.980Z,23.73
2022-12-12T07:41:17.182Z,24.95
2022-12-12T07:43:45.777Z,25.27
2022-12-12T07:46:18.565Z,24.88
2022-12-12T07:48:45.179Z,25.00
2022-12-12T07:51:12.904Z,25.75
2022-12-12T07:53:39.602Z,25.45
2022-12-12T07:56:07.754Z,25.15
2022-12-12T07:58:35.625Z,24.88
2022-12-12T08:01:13.932Z,24.58
2022-12-12T08:03:42.177Z,24.73
2022-12-12T08:06:08.867Z,25.45
2022-12-12T08:08:35.706Z,25.23
2022-12-12T08:11:11.166Z,24.67
2022-12-12T08:13:39.295Z,25.13
2022-12-12T08:16:08.216Z,23.85
2022-12-12T08:18:34.833Z,25.05
2022-12-12T08:21:01.638Z,25.10
2022-12-12T08:23:28.482Z,22.05
2022-12-12T08:25:55.073Z,21.40
2022-12-12T08:28:21.739Z,22.77
2022-12-12T08:30:50.032Z,22.23
2022-12-12T08:33:16.700Z,21.75
2022-12-12T08:35:43.290Z,22.67
2022-12-12T08:38:09.852Z,19.90
2022-12-12T08:40:36.451Z,20.05
2022-12-12T08:43:03.007Z,23.02
2022-12-12T08:45:29.579Z,23.00
2022-12-12T08:47:56.240Z,25.85
2022-12-12T08:50:22.806Z,21.42
2022-12-12T08:52:49.306Z,20.20
2022-12-12T08:55:16.024Z,18.42
2022-12-12T08:57:42.805Z,18.88
2022-12-12T09:00:10.693Z,20.45
2022-12-12T09:02:37.464Z,19.63
2022-12-12T09:05:04.332Z,21.13
2022-12-12T09:07:30.893Z,20.75
2022-12-12T09:09:57.617Z,21.13
2022-12-12T09:12:24.228Z,23.73
2022-12-12T09:14:50.783Z,27.45
2022-12-12T09:17:17.334Z,22.15
2022-12-12T09:19:43.947Z,18.95
2022-12-12T09:22:10.621Z,18.08
2022-12-12T09:24:37.289Z,18.13
2022-12-12T09:27:04.498Z,23.00
2022-12-12T09:29:31.198Z,23.25
2022-12-12T09:31:58.344Z,20.45
2022-12-12T09:34:25.153Z,18.40
2022-12-12T09:36:51.728Z,17.73
2022-12-12T09:39:19.688Z,18.77
2022-12-12T09:41:46.275Z,17.52
2022-12-12T09:44:18.782Z,19.15
2022-12-12T09:46:55.586Z,18.30
2022-12-12T09:49:22.099Z,17.30
2022-12-12T09:51:50.797Z,17.60
2022-12-12T09:54:21.210Z,18.85
2022-12-12T09:56:55.587Z,21.80
2022-12-12T09:59:31.258Z,19.25
2022-12-12T10:02:21.519Z,19.73
2022-12-12T10:05:15.739Z,18.98
2022-12-12T10:08:17.805Z,19.73
2022-12-12T10:10:48.086Z,19.17
2022-12-12T10:13:19.345Z,17.25
2022-12-12T10:15:49.357Z,18.90
2022-12-12T10:18:26.965Z,20.40
2022-12-12T10:20:56.796Z,23.83
2022-12-12T10:23:46.499Z,20.98
2022-12-12T10:26:27.486Z,27.00
2022-12-12T10:29:00.213Z,21.60
2022-12-12T10:31:26.880Z,18.95
2022-12-12T10:34:14.341Z,18.63
2022-12-12T10:37:03.679Z,19.17
2022-12-12T10:39:30.199Z,19.45
2022-12-12T10:42:21.385Z,19.90
2022-12-12T10:45:12.513Z,17.55
2022-12-12T10:47:39.239Z,20.20
2022-12-12T10:50:13.414Z,18.92
2022-12-12T10:52:40.342Z,18.73
2022-12-12T10:55:20.106Z,20.35
2022-12-12T10:57:46.690Z,19.33
2022-12-12T11:00:25.408Z,17.17
2022-12-12T11:02:56.771Z,18.20
2022-12-12T11:05:34.560Z,19.48
2022-12-12T11:08:21.021Z,19.70
2022-12-12T11:10:59.439Z,21.88
2022-12-12T11:13:26.175Z,20.23
2022-12-12T11:15:57.664Z,20.75
2022-12-12T11:18:25.463Z,19.17
2022-12-12T11:21:14.084Z,19.75
2022-12-12T11:23:51.939Z,19.75
2022-12-12T11:26:20.478Z,20.88
2022-12-12T11:28:55.602Z,18.52
2022-12-12T11:31:25.955Z,20.15
2022-12-12T11:33:57.523Z,19.42
2022-12-12T11:36:31.974Z,19.00
2022-12-12T11:39:01.724Z,18.42
2022-12-12T11:41:28.799Z,19.63
2022-12-12T11:44:00.196Z,17.20
2022-12-12T11:46:32.125Z,20.20
2022-12-12T11:51:43.362Z,18.75
2022-12-12T11:54:14.632Z,18.25
2022-12-12T11:56:44.155Z,18.63
2022-12-12T11:59:22.752Z,18.00
2022-12-12T12:02:00.287Z,19.73
2022-12-12T12:04:51.276Z,17.83
2022-12-12T12:07:19.564Z,17.13
2022-12-12T12:09:57.044Z,17.52
2022-12-12T12:13:02.303Z,17.83
2022-12-12T12:15:35.940Z,18.33
2022-12-12T12:18:28.276Z,19.92
2022-12-12T12:21:16.826Z,16.77
2022-12-12T12:23:52.241Z,16.83
2022-12-12T12:27:06.881Z,18.95
2022-12-12T12:29:42.835Z,27.65
2022-12-12T12:32:26.323Z,21.13
2022-12-12T12:35:14.351Z,18.73
2022-12-12T12:38:13.410Z,21.88
2022-12-12T12:40:49.966Z,20.02
2022-12-12T12:43:28.911Z,23.25
2022-12-12T12:46:12.761Z,26.60
2022-12-12T12:48:43.705Z,18.60
2022-12-12T12:51:35.230Z,19.08
2022-12-12T12:54:18.240Z,20.92
2022-12-12T12:56:58.781Z,18.83
2022-12-12T12:59:32.552Z,17.58
2022-12-12T13:02:12.111Z,16.92
2022-12-12T13:04:57.371Z,18.02
2022-12-12T13:07:29.061Z,17.65
2022-12-12T13:10:08.638Z,17.27
2022-12-12T13:12:40.116Z,16.90
2022-12-12T13:15:22.418Z,17.13
2022-12-12T13:18:09.289Z,16.52
2022-12-12T13:20:42.340Z,16.90
2022-12-12T13:23:47.195Z,17.08
2022-12-12T13:26:38.605Z,20.85
2022-12-12T13:29:41.517Z,19.55
2022-12-12T13:32:17.131Z,21.05
2022-12-12T13:34:50.804Z,31.55
2022-12-12T13:37:20.626Z,17.52
2022-12-12T13:40:01.020Z,20.20
2022-12-12T13:42:51.910Z,17.27
2022-12-12T13:45:43.634Z,21.02
2022-12-12T13:48:46.990Z,23.88
2022-12-12T13:51:32.054Z,28.10
2022-12-12T13:54:12.821Z,20.85
2022-12-12T13:56:52.716Z,18.38
2022-12-12T13:59:22.246Z,17.83
2022-12-12T14:02:00.098Z,18.48
2022-12-12T14:04:30.951Z,18.27
2022-12-12T14:06:59.128Z,19.52
2022-12-12T14:09:47.279Z,17.88
2022-12-12T14:12:20.396Z,18.42
2022-12-12T14:14:57.406Z,18.17
2022-12-12T14:17:27.975Z,18.27
2022-12-12T14:19:58.601Z,19.15
2022-12-12T14:22:40.347Z,19.17
2022-12-12T14:25:33.879Z,18.35
2022-12-12T14:28:18.876Z,18.15
2022-12-12T14:30:56.009Z,25.02
2022-12-12T14:33:47.457Z,19.15
2022-12-12T14:36:25.356Z,20.77
2022-12-12T14:39:01.980Z,18.85
2022-12-12T14:41:34.620Z,19.65
2022-12-12T14:44:35.202Z,19.75
2022-12-12T14:46:52.070Z,21.20
2022-12-12T14:49:19.298Z,19.05
2022-12-12T14:51:50.745Z,19.67
2022-12-12T14:54:22.728Z,20.17
2022-12-12T14:57:01.429Z,19.45
2022-12-12T14:59:32.856Z,20.23
2022-12-12T15:02:05.946Z,19.85
2022-12-12T15:04:38.903Z,19.70
2022-12-12T15:07:21.487Z,19.60
2022-12-12T15:09:49.308Z,19.73
2022-12-12T15:12:22.067Z,21.73
2022-12-12T15:14:48.590Z,20.85
2022-12-12T15:17:26.794Z,20.58
2022-12-12T15:19:57.651Z,20.15
2022-12-12T15:22:30.787Z,18.27
2022-12-12T15:25:00.465Z,19.83
2022-12-12T15:27:46.146Z,20.15
2022-12-12T15:30:16.762Z,19.13
2022-12-12T15:32:46.981Z,19.65
2022-12-12T15:35:20.913Z,20.40
2022-12-12T15:37:58.941Z,20.23
2022-12-12T15:40:35.845Z,22.40
2022-12-12T15:43:06.596Z,21.90
2022-12-12T15:45:40.453Z,20.88
2022-12-12T15:48:13.606Z,22.20
2022-12-12T15:50:40.132Z,21.65
2022-12-12T15:53:19.164Z,21.85
2022-12-12T15:56:01.941Z,21.77
2022-12-12T15:58:35.120Z,23.05
2022-12-12T16:01:21.418Z,22.48
2022-12-12T16:04:10.210Z,22.58
2022-12-12T16:06:36.951Z,22.10
2022-12-12T16:09:17.875Z,22.30
2022-12-12T16:11:47.419Z,22.90
2022-12-12T16:14:40.836Z,22.30
2022-12-12T16:17:18.272Z,23.35
2022-12-12T16:20:10.718Z,23.77
2022-12-12T16:22:47.787Z,23.00
2022-12-12T16:25:32.521Z,24.65
2022-12-12T16:28:08.468Z,22.95
2022-12-12T16:30:36.809Z,24.40
2022-12-12T16:33:23.089Z,26.58
2022-12-12T16:35:49.855Z,28.50
2022-12-12T16:38:17.809Z,27.70
2022-12-12T16:40:48.354Z,29.00
2022-12-12T16:43:17.643Z,27.92
2022-12-12T16:45:44.426Z,28.38
2022-12-12T16:48:18.489Z,29.70
2022-12-12T16:50:46.011Z,26.95
2022-12-12T16:53:12.765Z,26.85
2022-12-12T16:55:45.648Z,27.73
2022-12-12T16:58:12.657Z,28.10
2022-12-12T17:00:40.044Z,28.02
2022-12-12T17:03:07.077Z,27.77
2022-12-12T17:05:35.261Z,27.88
2022-12-12T17:08:03.121Z,27.67
2022-12-12T17:10:31.616Z,26.05
2022-12-12T17:12:58.188Z,27.17
2022-12-12T17:15:29.955Z,25.70
2022-12-12T17:20:24.680Z,25.10
2022-12-12T17:22:52.155Z,26.30
2022-12-12T17:25:19.755Z,25.10
2022-12-12T17:27:46.331Z,25.85
2022-12-12T17:30:14.026Z,25.35
2022-12-12T17:32:41.164Z,25.25
2022-12-12T17:35:08.896Z,27.52
2022-12-12T17:37:35.926Z,27.70
2022-12-12T17:40:04.712Z,25.35
2022-12-12T17:42:32.056Z,27.55
2022-12-12T17:44:59.310Z,26.77
2022-12-12T17:47:26.478Z,28.73
2022-12-12T17:49:53.080Z,27.27
2022-12-12T17:52:19.663Z,29.15
2022-12-12T17:55:54.014Z,27.52
2022-12-12T17:57:34.488Z,28.50
2022-12-12T18:00:01.064Z,28.10
2022-12-12T18:02:27.670Z,29.83
2022-12-12T18:04:54.296Z,30.55
2022-12-12T18:07:20.913Z,29.83
2022-12-12T18:09:47.461Z,29.60
2022-12-12T18:12:14.264Z,28.13
2022-12-12T18:14:40.871Z,28.70
2022-12-12T18:17:07.592Z,29.42
2022-12-12T18:19:34.270Z,30.23
2022-12-12T18:22:02.054Z,29.80
2022-12-12T18:24:29.953Z,29.40
2022-12-12T18:26:59.105Z,30.38
2022-12-12T18:29:26.642Z,28.38
2022-12-12T18:31:53.712Z,28.45
2022-12-12T18:34:20.762Z,27.63
2022-12-12T18:36:47.515Z,26.80
2022-12-12T18:39:14.253Z,25.58
2022-12-12T18:41:40.939Z,25.42
2022-12-12T18:44:11.289Z,25.90
2022-12-12T18:46:42.773Z,25.58
2022-12-12T18:49:15.671Z,26.08
2022-12-12T18:51:42.947Z,24.58
2022-12-12T18:54:15.438Z,25.60
2022-12-12T18:56:43.626Z,25.48
2022-12-12T18:59:10.253Z,25.88
2022-12-12T19:01:37.399Z,25.65
2022-12-12T19:04:11.773Z,26.10
2022-12-12T19:06:41.660Z,26.90
2022-12-12T19:09:14.717Z,25.88
2022-12-12T19:11:41.565Z,25.80
2022-12-12T19:14:09.652Z,25.17
2022-12-12T19:16:36.701Z,24.65
2022-12-12T19:19:09.349Z,24.25
2022-12-12T19:21:36.651Z,25.20
2022-12-12T19:24:04.808Z,23.83
2022-12-12T19:26:31.387Z,25.42
2022-12-12T19:29:04.629Z,25.38
2022-12-12T19:31:36.094Z,24.80
2022-12-12T19:34:05.001Z,25.67
2022-12-12T19:36:31.931Z,23.98
2022-12-12T19:39:00.774Z,23.58
2022-12-12T19:41:28.404Z,25.38
2022-12-12T19:43:57.298Z,24.67
2022-12-12T19:46:26.992Z,24.35
2022-12-12T19:49:01.285Z,23.27
2022-12-12T19:51:32.516Z,23.77
2022-12-12T19:54:00.248Z,22.88
2022-12-12T19:56:29.637Z,24.20
2022-12-12T19:58:57.465Z,23.92
2022-12-12T20:01:28.423Z,24.65
2022-12-12T20:04:02.994Z,24.33
2022-12-12T20:06:29.932Z,22.88
2022-12-12T20:09:00.043Z,24.05
2022-12-12T20:11:27.306Z,23.58
2022-12-12T20:13:56.814Z,23.15
2022-12-12T20:16:25.787Z,22.52
2022-12-12T20:18:53.130Z,21.88
2022-12-12T20:21:51.681Z,21.55
2022-12-12T20:24:10.571Z,21.35
2022-12-12T20:26:39.414Z,21.73
2022-12-12T20:29:06.737Z,20.83
2022-12-12T20:31:36.028Z,22.25
2022-12-12T20:34:02.760Z,21.42
2022-12-12T20:36:32.661Z,21.85
2022-12-12T20:39:01.548Z,22.73
2022-12-12T20:41:31.275Z,20.73
2022-12-12T20:43:59.625Z,21.08
2022-12-12T20:46:31.963Z,21.23
2022-12-12T20:48:59.976Z,21.60
2022-12-12T20:51:54.792Z,22.20
2022-12-12T20:54:19.948Z,21.73
2022-12-12T20:56:46.786Z,22.55
2022-12-12T20:59:14.560Z,22.42
2022-12-12T21:01:41.552Z,20.77
2022-12-12T21:04:09.471Z,21.35
2022-12-12T21:06:39.515Z,21.98
2022-12-12T21:09:09.638Z,21.90
2022-12-12T21:11:37.620Z,21.67
2022-12-12T21:14:04.387Z,22.45
2022-12-12T21:16:33.747Z,22.88
2022-12-12T21:19:02.696Z,20.98
2022-12-12T21:21:30.194Z,21.15
2022-12-12T21:23:57.036Z,20.08
2022-12-12T21:26:29.153Z,21.35
2022-12-12T21:28:56.872Z,20.67
2022-12-12T21:31:26.404Z,20.60
2022-12-12T21:33:53.068Z,18.83
2022-12-12T21:36:21.980Z,19.52
2022-12-12T21:38:49.603Z,17.85
2022-12-12T21:41:18.567Z,19.02
2022-12-12T21:43:45.490Z,18.23
2022-12-12T21:46:17.690Z,18.38
2022-12-12T21:48:44.290Z,19.02
2022-12-12T21:51:16.462Z,17.60
2022-12-12T21:53:43.098Z,18.52
2022-12-12T21:56:17.632Z,18.58
2022-12-12T21:58:47.305Z,18.05
2022-12-12T22:01:19.856Z,18.98
2022-12-12T22:03:48.540Z,18.00
2022-12-12T22:06:27.179Z,17.65
2022-12-12T22:08:58.778Z,17.05
2022-12-12T22:11:41.084Z,18.55
2022-12-12T22:14:12.227Z,17.60
2022-12-12T22:16:39.298Z,18.90
2022-12-12T22:19:10.916Z,17.95
2022-12-12T22:21:37.979Z,17.88
2022-12-12T22:24:05.371Z,18.15
2022-12-12T22:26:41.135Z,18.38
2022-12-12T22:29:11.244Z,23.23
2022-12-12T22:31:39.419Z,17.50
2022-12-12T22:34:10.536Z,16.50
2022-12-12T22:36:38.722Z,17.92
2022-12-12T22:39:07.830Z,17.42
2022-12-12T22:41:34.640Z,19.40
2022-12-12T22:44:03.937Z,18.17
2022-12-12T22:46:31.234Z,19.13
2022-12-12T22:49:00.497Z,16.90
2022-12-12T22:51:30.696Z,17.02
2022-12-12T22:53:59.646Z,16.60
2022-12-12T22:56:28.334Z,15.85
2022-12-12T22:58:55.247Z,16.23
2022-12-12T23:01:23.140Z,17.88
2022-12-12T23:03:49.915Z,17.33
2022-12-12T23:06:20.001Z,18.75
2022-12-12T23:08:55.745Z,18.55
2022-12-12T23:11:24.254Z,19.85
2022-12-12T23:13:53.517Z,18.02
2022-12-12T23:16:24.056Z,17.35
2022-12-12T23:18:51.334Z,18.77
2022-12-12T23:21:21.772Z,18.35
2022-12-12T23:23:49.288Z,18.02
2022-12-12T23:26:22.448Z,17.38
2022-12-12T23:28:49.752Z,17.88
2022-12-12T23:31:22.016Z,18.23
2022-12-12T23:33:53.735Z,18.20
2022-12-12T23:36:20.995Z,17.10
2022-12-12T23:38:47.736Z,15.82
2022-12-12T23:41:16.079Z,16.75
2022-12-12T23:43:43.214Z,16.67
2022-12-12T23:46:28.185Z,17.17
2022-12-12T23:49:05.944Z,17.38
2022-12-12T23:51:37.938Z,17.90
2022-12-12T23:54:07.204Z,17.10
2022-12-12T23:56:33.858Z,18.70
2022-12-12T23:59:01.055Z,16.75
